You are not logged in, Click here to log in
ICAO: FAOR Country: 南非約翰內斯堡附近肯普頓公園
Latitude: -26.1367 Longitude: 28.2411
Total Arrivals: 1 Total Departures: 1
Latest Arrival: LH572 (EDDF-FAOR)Lun. Wang Latest Departure: FS08 (FAOR-HAAB)ALAN. LIU
Scenery:
METAR : FAOR 180100Z 01010KT CAVOK 10/04 Q1030 NOSIG

奧利弗·坦博國際機場JNB